Time;durP1;ratioP1;P1;durP2;ratioP2;P2;SDS_P1;SDS_P2;PMS_P1;PMS_P2;Temp;Humidity;BMP_temperature;BMP_pressure;BME280_temperature;BME280_humidity;BME280_pressure;Samples;Min_cycle;Max_cycle;Signal;HPM_P1;HPM_P2
2021/08/11 00:01:26;;;;;;;6.40;4.23;;;;;;;21.79;56.94;96917.66;5069706;28;20194;-65
2021/08/11 00:03:52;;;;;;;7.00;4.40;;;;;;;21.80;57.13;96924.59;5071042;28;20718;-63
2021/08/11 00:06:18;;;;;;;4.40;4.00;;;;;;;21.84;56.97;96914.31;5071018;28;20417;-65
2021/08/11 00:08:44;;;;;;;6.27;4.10;;;;;;;21.76;57.01;96920.78;5071218;28;20182;-64
2021/08/11 00:11:10;;;;;;;5.80;5.20;;;;;;;21.81;56.25;96922.75;5070826;28;20206;-65
2021/08/11 00:13:36;;;;;;;5.53;4.30;;;;;;;21.79;56.73;96915.00;5069538;28;20927;-63
2021/08/11 00:16:02;;;;;;;6.70;4.17;;;;;;;21.70;57.56;96917.19;5055978;28;20176;-63
2021/08/11 00:18:28;;;;;;;6.43;3.90;;;;;;;21.40;57.86;96925.25;5051723;28;20190;-64
2021/08/11 00:20:53;;;;;;;4.73;3.80;;;;;;;21.08;59.35;96922.81;5055464;28;20438;-66
2021/08/11 00:23:19;;;;;;;6.37;3.80;;;;;;;21.24;59.23;96916.03;5071592;28;20179;-61
2021/08/11 00:25:45;;;;;;;6.37;4.00;;;;;;;21.88;56.99;96916.28;5074326;28;20210;-64
2021/08/11 00:28:10;;;;;;;4.40;3.67;;;;;;;22.21;55.88;96916.72;5073602;28;20265;-65
2021/08/11 00:30:36;;;;;;;4.30;3.33;;;;;;;22.64;54.07;96912.81;5064838;28;20584;-65
2021/08/11 00:33:01;;;;;;;4.80;4.00;;;;;;;22.82;53.39;96909.16;5066970;28;20226;-66
2021/08/11 00:35:27;;;;;;;9.63;3.73;;;;;;;22.61;54.17;96909.81;5071280;28;20232;-65
2021/08/11 00:37:53;;;;;;;4.40;3.50;;;;;;;22.64;54.04;96907.47;5072412;28;20189;-65
2021/08/11 00:40:20;;;;;;;9.20;3.87;;;;;;;22.54;53.95;96908.09;5073638;28;20232;-65
2021/08/11 00:42:46;;;;;;;4.30;3.50;;;;;;;22.39;54.33;96915.75;5072342;28;20579;-61
2021/08/11 00:45:14;;;;;;;7.00;3.63;;;;;;;22.19;55.34;96918.81;5073572;28;20465;-65
2021/08/11 00:47:39;;;;;;;6.73;3.70;;;;;;;22.01;56.08;96912.53;5060273;28;20417;-65
2021/08/11 00:50:06;;;;;;;6.20;4.10;;;;;;;21.90;55.84;96916.03;5074404;28;20816;-64
2021/08/11 00:52:31;;;;;;;8.40;4.03;;;;;;;21.82;56.35;96917.19;5072985;28;20217;-64
2021/08/11 00:54:58;;;;;;;3.67;3.10;;;;;;;21.71;56.36;96910.00;5073493;28;20511;-63
2021/08/11 00:57:25;;;;;;;4.63;3.23;;;;;;;21.57;56.83;96915.50;5072092;28;20608;-65
2021/08/11 00:59:50;;;;;;;4.13;3.30;;;;;;;21.53;56.90;96919.69;5072418;28;20482;-66
2021/08/11 01:02:17;;;;;;;5.23;3.77;;;;;;;21.51;57.00;96916.44;5073141;28;20524;-65
2021/08/11 01:04:44;;;;;;;5.57;4.10;;;;;;;21.52;57.12;96911.91;5072133;28;20557;-64
2021/08/11 01:07:10;;;;;;;5.50;3.77;;;;;;;21.53;57.49;96911.69;5073668;28;20416;-64
2021/08/11 01:09:37;;;;;;;4.90;4.27;;;;;;;21.51;57.44;96913.78;5073577;28;20432;-65
2021/08/11 01:12:04;;;;;;;5.00;3.77;;;;;;;21.46;57.54;96913.66;5073483;28;20199;-65
2021/08/11 01:14:30;;;;;;;4.73;3.60;;;;;;;21.45;57.74;96912.84;5073582;28;20412;-65
2021/08/11 01:16:56;;;;;;;9.30;3.60;;;;;;;21.42;57.41;96913.28;5059687;28;20562;-65
2021/08/11 01:19:21;;;;;;;5.17;3.50;;;;;;;21.45;57.76;96912.84;5064872;28;20429;-65
2021/08/11 01:21:55;;;;;;;6.97;3.60;;;;;;;21.54;57.30;96910.66;5073119;28;20237;-65
2021/08/11 01:24:28;;;;;;;6.07;4.00;;;;;;;21.68;57.22;96907.78;5071962;28;20178;-65
2021/08/11 01:27:07;;;;;;;6.60;3.57;;;;;;;22.03;55.89;96910.47;5071802;28;20555;-65
2021/08/11 01:29:59;;;;;;;5.43;4.03;;;;;;;22.53;53.97;96906.47;5071338;28;20488;-65
2021/08/11 01:33:02;;;;;;;9.13;3.17;;;;;;;22.47;53.76;96906.59;5072851;28;20451;-65
2021/08/11 01:35:31;;;;;;;4.60;3.67;;;;;;;22.66;53.76;96909.91;5071410;28;20412;-64
2021/08/11 01:37:58;;;;;;;7.50;3.60;;;;;;;22.96;52.43;96907.00;5071716;28;21183;-62
2021/08/11 01:40:29;;;;;;;3.83;3.30;;;;;;;23.01;52.22;96900.94;5071277;28;20440;-63
2021/08/11 01:42:57;;;;;;;5.93;3.90;;;;;;;22.99;52.26;96903.03;5071358;28;20413;-64
2021/08/11 01:45:37;;;;;;;6.07;4.00;;;;;;;22.76;52.96;96899.44;5052037;28;20429;-65
2021/08/11 01:48:12;;;;;;;4.07;3.27;;;;;;;22.57;53.87;96900.63;5064471;28;20435;-66
2021/08/11 01:50:40;;;;;;;9.73;3.53;;;;;;;22.53;54.11;96894.97;5070815;28;20494;-65
2021/08/11 01:53:08;;;;;;;5.87;3.70;;;;;;;22.60;53.54;96910.84;5070676;28;20453;-65
2021/08/11 01:55:34;;;;;;;5.73;3.40;;;;;;;22.48;53.64;96903.69;5070574;28;20413;-66
2021/08/11 01:58:00;;;;;;;8.23;3.47;;;;;;;22.32;54.00;96909.72;5072230;28;20467;-64
2021/08/11 02:00:26;;;;;;;6.70;3.83;;;;;;;22.17;54.84;96905.72;5070677;28;20532;-67
2021/08/11 02:02:53;;;;;;;6.27;3.43;;;;;;;22.12;55.07;96902.91;5072089;28;20496;-63
2021/08/11 02:05:24;;;;;;;5.00;3.87;;;;;;;22.07;55.35;96902.78;5070576;28;20193;-64
2021/08/11 02:07:49;;;;;;;3.93;3.53;;;;;;;21.91;55.96;96905.16;5071095;28;20440;-61
2021/08/11 02:10:16;;;;;;;4.63;3.80;;;;;;;21.86;56.21;96898.88;5069767;28;20425;-67
2021/08/11 02:12:42;;;;;;;6.30;3.60;;;;;;;21.70;57.06;96903.03;5070685;28;20240;-62
2021/08/11 02:15:09;;;;;;;4.70;3.40;;;;;;;21.84;56.21;96900.97;5071440;28;20828;-63
2021/08/11 02:17:38;;;;;;;6.60;3.90;;;;;;;21.85;56.23;96899.94;5065532;28;20413;-65
2021/08/11 02:20:06;;;;;;;4.63;3.60;;;;;;;22.03;55.86;96897.13;5063294;28;20534;-64
2021/08/11 02:22:31;;;;;;;4.23;3.63;;;;;;;22.22;54.60;96899.66;5071532;28;20413;-64
2021/08/11 02:24:57;;;;;;;5.13;4.10;;;;;;;22.05;54.97;96903.03;5070934;28;20428;-64
2021/08/11 02:27:25;;;;;;;6.43;3.90;;;;;;;22.24;55.15;96895.72;5071520;28;20255;-65
2021/08/11 02:29:55;;;;;;;4.00;3.47;;;;;;;22.46;54.25;96897.78;5071384;28;20195;-65
2021/08/11 02:32:38;;;;;;;6.20;3.57;;;;;;;22.39;54.09;96900.53;5070195;28;20816;-65
2021/08/11 02:35:13;;;;;;;5.00;3.57;;;;;;;22.01;55.15;96907.22;5069905;28;20974;-64
2021/08/11 02:37:53;;;;;;;7.53;4.13;;;;;;;21.65;56.16;96913.59;5067331;28;20453;-65
2021/08/11 02:40:35;;;;;;;5.20;3.73;;;;;;;21.84;56.31;96908.97;5061734;28;20457;-64
2021/08/11 02:43:18;;;;;;;4.20;3.53;;;;;;;22.08;55.59;96910.59;5071415;28;20904;-65
2021/08/11 02:45:46;;;;;;;7.10;3.87;;;;;;;22.25;54.82;96904.50;5062155;28;20413;-64
2021/08/11 02:48:12;;;;;;;4.17;3.73;;;;;;;22.40;54.52;96906.72;5065833;28;20831;-65
2021/08/11 02:50:39;;;;;;;6.97;4.30;;;;;;;22.46;54.24;96905.78;5070167;28;20531;-65
2021/08/11 02:53:05;;;;;;;11.13;3.77;;;;;;;22.20;54.89;96907.88;5053489;28;20469;-65
2021/08/11 02:55:32;;;;;;;8.07;4.00;;;;;;;21.86;55.41;96913.03;5069747;28;20934;-65
2021/08/11 02:57:57;;;;;;;5.70;3.57;;;;;;;21.72;56.67;96906.28;5071429;28;20510;-63
2021/08/11 03:00:23;;;;;;;8.40;3.70;;;;;;;21.69;56.33;96907.56;5069529;28;20950;-65
2021/08/11 03:02:49;;;;;;;4.83;4.27;;;;;;;21.87;55.52;96898.66;5071435;28;20175;-65
2021/08/11 03:05:15;;;;;;;4.37;3.70;;;;;;;21.85;55.88;96905.25;5070720;28;20428;-67
2021/08/11 03:07:42;;;;;;;8.43;3.73;;;;;;;21.99;55.61;96903.97;5071325;28;20186;-65
2021/08/11 03:10:09;;;;;;;4.50;3.73;;;;;;;22.13;54.73;96901.88;5068418;28;20565;-65
2021/08/11 03:12:35;;;;;;;5.00;3.97;;;;;;;21.89;54.75;96907.22;5056570;28;20536;-64
2021/08/11 03:15:01;;;;;;;6.37;3.70;;;;;;;21.87;55.48;96906.66;5070891;28;20420;-63
2021/08/11 03:17:27;;;;;;;5.30;3.50;;;;;;;22.21;54.58;96909.50;5058405;28;20420;-65
2021/08/11 03:19:52;;;;;;;7.60;4.33;;;;;;;21.98;54.94;96896.19;5061359;28;20824;-65
2021/08/11 03:22:19;;;;;;;7.67;4.30;;;;;;;21.70;55.30;96900.38;5071272;28;20185;-65
2021/08/11 03:24:44;;;;;;;12.73;4.13;;;;;;;21.45;57.03;96907.50;5054473;28;20263;-65
2021/08/11 03:27:10;;;;;;;5.43;3.60;;;;;;;21.24;57.10;96908.84;5069160;28;20429;-68
2021/08/11 03:29:35;;;;;;;5.70;4.00;;;;;;;21.14;58.08;96909.41;5056845;28;20182;-64
2021/08/11 03:32:01;;;;;;;6.50;3.97;;;;;;;21.25;56.82;96907.00;5071261;28;20210;-65
2021/08/11 03:34:28;;;;;;;6.27;3.77;;;;;;;21.43;56.80;96906.09;5049305;28;20244;-64
2021/08/11 03:36:54;;;;;;;4.17;3.77;;;;;;;21.96;55.16;96904.44;5063381;28;20183;-64
2021/08/11 03:39:19;;;;;;;4.73;3.60;;;;;;;22.30;54.10;96903.84;5050221;28;20487;-65
2021/08/11 03:41:45;;;;;;;4.13;3.43;;;;;;;22.39;54.02;96899.75;5056952;28;20281;-66
2021/08/11 03:44:11;;;;;;;9.13;3.90;;;;;;;22.30;53.95;96914.50;5054079;28;20274;-62
2021/08/11 03:46:36;;;;;;;5.00;4.07;;;;;;;22.24;53.90;96903.72;5058308;28;20178;-64
2021/08/11 03:49:02;;;;;;;5.57;4.17;;;;;;;22.11;53.52;96906.63;5051883;28;20183;-64
2021/08/11 03:51:28;;;;;;;7.70;4.10;;;;;;;21.91;54.65;96912.31;5046379;28;20199;-65
2021/08/11 03:53:53;;;;;;;8.17;3.80;;;;;;;21.46;56.06;96911.81;5054072;28;20183;-63
2021/08/11 03:56:19;;;;;;;8.90;3.77;;;;;;;21.15;57.99;96915.56;5054469;28;20211;-65
2021/08/11 03:58:44;;;;;;;5.60;3.80;;;;;;;21.68;56.03;96913.94;5062891;28;20179;-65
2021/08/11 04:01:10;;;;;;;5.00;3.97;;;;;;;21.67;55.42;96906.19;5054224;28;20218;-65
2021/08/11 04:03:35;;;;;;;6.40;4.23;;;;;;;21.68;55.90;96911.28;5066569;28;20289;-62
2021/08/11 04:06:01;;;;;;;9.13;4.20;;;;;;;21.88;54.33;96905.59;5053386;28;20189;-64
2021/08/11 04:08:26;;;;;;;5.43;4.10;;;;;;;22.13;54.70;96901.88;5053843;28;20187;-66
2021/08/11 04:10:53;;;;;;;5.57;3.60;;;;;;;22.40;53.61;96898.69;5056572;28;20195;-65
2021/08/11 04:13:19;;;;;;;6.50;3.67;;;;;;;22.62;52.94;96898.09;5053493;28;20218;-62
2021/08/11 04:15:45;;;;;;;8.60;5.17;;;;;;;22.49;52.54;96904.53;5053787;28;20468;-64
2021/08/11 04:18:11;;;;;;;7.57;4.57;;;;;;;22.51;52.95;96903.22;5052333;28;20187;-67
2021/08/11 04:20:38;;;;;;;5.90;4.20;;;;;;;22.52;52.93;96902.19;5049468;28;20497;-65
2021/08/11 04:23:04;;;;;;;6.53;4.50;;;;;;;22.48;53.17;96901.03;5053793;28;20190;-65
2021/08/11 04:25:30;;;;;;;6.87;4.07;;;;;;;22.36;53.84;96901.03;5053637;28;20428;-65
2021/08/11 04:27:57;;;;;;;8.63;4.13;;;;;;;22.29;53.04;96910.22;5053707;28;20426;-65
2021/08/11 04:30:22;;;;;;;5.50;3.87;;;;;;;22.18;54.54;96912.63;5055690;28;20868;-61
2021/08/11 04:32:48;;;;;;;5.70;4.00;;;;;;;22.19;54.15;96911.59;5053551;28;20569;-64
2021/08/11 04:35:13;;;;;;;6.40;3.80;;;;;;;22.22;54.08;96908.47;5051987;28;20203;-61
2021/08/11 04:37:40;;;;;;;4.63;4.00;;;;;;;22.34;53.60;96912.97;5052119;28;20257;-64
2021/08/11 04:40:06;;;;;;;5.67;4.00;;;;;;;22.40;53.94;96909.38;5053421;28;20235;-63
2021/08/11 04:42:32;;;;;;;7.23;3.73;;;;;;;22.51;53.45;96919.25;5053718;28;20437;-65
2021/08/11 04:44:59;;;;;;;7.90;3.83;;;;;;;22.56;52.98;96913.19;5055991;28;20432;-63
2021/08/11 04:47:24;;;;;;;7.13;3.90;;;;;;;22.56;53.10;96915.84;5035490;28;20831;-66
2021/08/11 04:49:50;;;;;;;4.07;3.67;;;;;;;22.70;52.58;96917.22;5053721;28;20422;-65
2021/08/11 04:52:16;;;;;;;6.13;4.13;;;;;;;22.80;52.23;96916.59;5055152;28;20209;-63
2021/08/11 04:54:41;;;;;;;5.73;3.83;;;;;;;22.91;51.89;96922.13;5059679;28;20183;-66
2021/08/11 04:57:07;;;;;;;6.70;4.20;;;;;;;22.86;51.70;96918.31;5053368;28;20190;-66
2021/08/11 04:59:33;;;;;;;5.87;3.97;;;;;;;22.54;52.67;96920.63;5052631;28;20191;-66
2021/08/11 05:01:58;;;;;;;5.07;4.50;;;;;;;22.38;52.74;96928.28;5052937;28;20232;-64
2021/08/11 05:04:24;;;;;;;7.27;4.20;;;;;;;22.14;54.58;96926.69;5054097;28;20305;-66
2021/08/11 05:06:50;;;;;;;10.30;4.10;;;;;;;22.05;54.34;96918.25;5053735;28;20207;-67
2021/08/11 05:09:16;;;;;;;8.60;4.50;;;;;;;22.02;55.05;96926.72;5063105;28;20182;-66
2021/08/11 05:11:42;;;;;;;7.50;4.47;;;;;;;22.07;55.11;96929.47;5057219;28;20460;-65
2021/08/11 05:14:07;;;;;;;5.50;4.17;;;;;;;21.98;55.27;96933.53;5073662;28;20189;-64
2021/08/11 05:16:33;;;;;;;12.23;4.40;;;;;;;21.88;55.52;96936.78;5063300;28;20193;-64
2021/08/11 05:18:58;;;;;;;8.67;4.90;;;;;;;21.81;56.51;96936.91;5064480;28;20179;-65
2021/08/11 05:21:25;;;;;;;4.80;4.13;;;;;;;22.09;55.19;96938.91;5064564;28;20199;-67
2021/08/11 05:23:50;;;;;;;4.67;3.90;;;;;;;21.92;55.98;96936.13;5063736;28;20187;-66
2021/08/11 05:26:17;;;;;;;7.73;4.30;;;;;;;21.94;55.81;96942.00;5052780;28;20428;-62
2021/08/11 05:28:43;;;;;;;8.80;4.50;;;;;;;21.94;55.92;96947.34;5053276;28;20265;-63
2021/08/11 05:31:08;;;;;;;6.30;3.90;;;;;;;22.11;56.00;96940.53;5051466;28;20445;-65
2021/08/11 05:33:34;;;;;;;6.73;4.40;;;;;;;22.22;55.47;96943.16;5036012;28;20524;-66
2021/08/11 05:36:00;;;;;;;5.53;3.57;;;;;;;22.45;54.71;96936.19;5042121;28;20237;-65
2021/08/11 05:38:27;;;;;;;7.63;4.60;;;;;;;22.68;54.42;96935.34;5044167;28;20195;-63
2021/08/11 05:40:53;;;;;;;10.70;3.80;;;;;;;22.89;53.84;96935.72;5040711;28;20450;-65
2021/08/11 05:43:18;;;;;;;6.63;4.27;;;;;;;22.99;53.67;96937.78;5048306;28;20441;-65
2021/08/11 05:45:44;;;;;;;8.80;4.30;;;;;;;23.14;52.99;96938.06;5072265;28;20425;-64
2021/08/11 05:48:10;;;;;;;5.40;4.90;;;;;;;23.40;52.55;96941.22;5071805;28;20182;-65
2021/08/11 05:50:36;;;;;;;7.40;4.43;;;;;;;23.72;52.01;96943.34;5067248;28;20217;-67
2021/08/11 05:53:02;;;;;;;10.93;4.53;;;;;;;24.19;51.26;96938.72;5068584;28;20210;-65
2021/08/11 05:55:28;;;;;;;7.00;4.80;;;;;;;24.65;50.19;96936.63;5047997;28;20452;-65
2021/08/11 05:57:53;;;;;;;4.63;4.10;;;;;;;25.05;49.21;96931.97;5072195;28;20417;-63
2021/08/11 06:00:19;;;;;;;7.53;4.10;;;;;;;25.35;47.73;96941.41;5072213;28;20712;-68
2021/08/11 06:02:45;;;;;;;4.43;3.67;;;;;;;25.45;47.85;96935.34;5051940;28;20184;-66
2021/08/11 06:05:11;;;;;;;18.80;5.73;;;;;;;25.23;51.78;96938.06;5061911;28;20413;-67
2021/08/11 06:07:37;;;;;;;12.90;4.77;;;;;;;25.24;50.92;96945.03;5059084;28;20558;-66
2021/08/11 06:10:04;;;;;;;18.40;6.00;;;;;;;25.24;52.18;96942.38;5067601;28;20194;-66
2021/08/11 06:12:29;;;;;;;5.67;4.23;;;;;;;25.10;49.22;96947.31;5071086;28;20978;-66
2021/08/11 06:14:55;;;;;;;11.83;4.80;;;;;;;25.09;49.31;96951.03;5057301;28;20421;-65
2021/08/11 06:17:21;;;;;;;6.63;3.70;;;;;;;25.17;50.40;96950.59;5067864;28;20702;-67
2021/08/11 06:19:47;;;;;;;5.73;4.27;;;;;;;25.02;50.92;96953.13;5071602;28;20216;-66
2021/08/11 06:22:14;;;;;;;10.43;4.03;;;;;;;25.37;48.56;96962.59;5070123;28;20186;-65
2021/08/11 06:24:39;;;;;;;9.00;4.53;;;;;;;25.51;49.68;96950.41;5071311;28;20424;-64
2021/08/11 06:27:05;;;;;;;12.70;4.20;;;;;;;25.49;48.51;96949.06;5071620;28;20424;-65
2021/08/11 06:29:30;;;;;;;5.40;4.33;;;;;;;25.46;48.70;96958.41;5062080;28;20179;-64
2021/08/11 06:31:56;;;;;;;13.17;4.77;;;;;;;25.49;48.20;96955.22;5070091;28;20241;-64
2021/08/11 06:34:24;;;;;;;6.23;4.00;;;;;;;25.39;48.65;96955.91;5071040;28;20196;-62
2021/08/11 06:36:53;;;;;;;4.63;4.10;;;;;;;25.45;47.52;96951.44;5069659;28;20228;-64
2021/08/11 06:39:19;;;;;;;7.13;4.57;;;;;;;25.52;48.08;96959.28;5070830;28;20444;-65
2021/08/11 06:41:45;;;;;;;5.90;4.10;;;;;;;25.51;47.32;96955.78;5070820;28;20979;-66
2021/08/11 06:44:10;;;;;;;5.40;4.40;;;;;;;25.72;46.96;96959.44;5062567;28;20263;-63
2021/08/11 06:46:36;;;;;;;6.17;4.10;;;;;;;25.66;47.59;96965.03;5072079;28;20175;-65
2021/08/11 06:49:01;;;;;;;5.10;4.10;;;;;;;25.63;47.28;96962.84;5070897;28;20277;-63
2021/08/11 06:51:27;;;;;;;3.80;3.50;;;;;;;25.74;46.93;96969.91;5062043;28;20207;-64
2021/08/11 06:53:52;;;;;;;6.10;3.90;;;;;;;26.04;46.50;96972.00;5071884;28;20679;-65
2021/08/11 06:56:18;;;;;;;7.43;4.20;;;;;;;26.17;46.35;96975.34;5070027;28;20182;-65
2021/08/11 06:58:44;;;;;;;8.43;3.60;;;;;;;26.15;46.24;96974.81;5062240;28;20293;-66
2021/08/11 07:01:09;;;;;;;5.23;3.80;;;;;;;25.63;47.23;96984.31;5068210;28;20236;-66
2021/08/11 07:03:35;;;;;;;4.10;3.60;;;;;;;25.84;46.50;96977.25;5060639;28;20806;-65
2021/08/11 07:06:01;;;;;;;4.60;3.60;;;;;;;25.67;47.46;96980.84;5033121;28;20202;-65
2021/08/11 07:08:27;;;;;;;5.63;4.10;;;;;;;25.93;46.74;96978.38;5070897;28;20552;-66
2021/08/11 07:10:52;;;;;;;8.67;3.97;;;;;;;26.03;46.48;96977.66;5071279;28;20618;-66
2021/08/11 07:13:19;;;;;;;4.90;3.80;;;;;;;26.38;45.97;96970.91;5064820;28;20265;-66
2021/08/11 07:15:44;;;;;;;3.77;3.47;;;;;;;26.62;45.36;96974.00;5053054;28;20186;-66
2021/08/11 07:18:15;;;;;;;8.77;3.80;;;;;;;26.72;44.60;96967.03;5070198;28;20453;-65
2021/08/11 07:20:41;;;;;;;5.33;3.77;;;;;;;26.58;44.59;96966.72;5064767;28;20194;-71
2021/08/11 07:23:06;;;;;;;7.57;3.77;;;;;;;26.53;44.85;96979.06;5058798;28;20445;-71
2021/08/11 07:25:32;;;;;;;4.03;3.30;;;;;;;26.01;45.44;96969.03;5050212;28;20194;-68
2021/08/11 07:27:58;;;;;;;6.30;3.90;;;;;;;25.95;45.74;96973.56;5051634;28;20184;-68
2021/08/11 07:30:23;;;;;;;6.10;3.70;;;;;;;26.10;46.14;96970.19;5061597;28;20202;-71
2021/08/11 07:32:49;;;;;;;5.63;4.10;;;;;;;26.14;45.87;96965.13;5062782;28;20259;-71
2021/08/11 07:35:15;;;;;;;7.43;5.50;;;;;;;26.33;45.84;96960.94;5071703;28;20186;-70
2021/08/11 07:37:53;;;;;;;7.63;3.50;;;;;;;26.44;45.49;96963.69;5072749;28;20182;-70
2021/08/11 07:40:20;;;;;;;7.10;4.47;;;;;;;26.46;45.17;96953.50;5070274;28;20210;-68
2021/08/11 07:42:46;;;;;;;6.80;4.10;;;;;;;26.35;45.21;96960.69;5065638;28;20495;-71
2021/08/11 07:45:13;;;;;;;10.73;3.90;;;;;;;26.11;45.74;96957.59;5060138;28;20587;-71
2021/08/11 07:47:40;;;;;;;7.67;3.97;;;;;;;25.85;46.04;96960.88;5069696;28;20193;-71
2021/08/11 07:50:06;;;;;;;5.93;3.73;;;;;;;26.22;44.91;96957.38;5069587;28;20444;-70
2021/08/11 07:52:32;;;;;;;9.40;3.70;;;;;;;26.86;44.68;96957.44;5074666;28;20460;-70
2021/08/11 07:54:57;;;;;;;5.50;4.10;;;;;;;27.06;43.99;96945.94;5074231;28;20458;-70
2021/08/11 07:57:23;;;;;;;8.13;4.50;;;;;;;26.91;43.73;96956.66;5074316;28;20185;-71
2021/08/11 07:59:49;;;;;;;8.10;4.00;;;;;;;26.77;44.02;96956.31;5069977;28;20552;-70
2021/08/11 08:02:14;;;;;;;8.83;3.83;;;;;;;26.77;44.26;96964.38;5074561;28;20257;-71
2021/08/11 08:04:43;;;;;;;4.27;3.87;;;;;;;26.58;44.99;96950.59;5074419;28;20547;-71
2021/08/11 08:07:08;;;;;;;9.50;4.47;;;;;;;26.35;45.57;96956.13;5073875;28;20244;-70
2021/08/11 08:09:34;;;;;;;4.27;3.80;;;;;;;26.65;45.12;96951.16;5073763;28;20424;-71
2021/08/11 08:12:00;;;;;;;8.87;3.70;;;;;;;26.86;44.77;96956.63;5074162;28;20516;-70
2021/08/11 08:14:25;;;;;;;7.70;3.97;;;;;;;26.65;45.05;96953.84;5067811;28;20186;-70
2021/08/11 08:16:51;;;;;;;6.53;4.13;;;;;;;27.09;44.13;96945.41;5074218;28;20209;-68
2021/08/11 08:19:17;;;;;;;4.07;3.67;;;;;;;27.52;43.31;96942.56;5065699;28;20191;-71
2021/08/11 08:21:42;;;;;;;5.63;4.13;;;;;;;27.78;42.37;96947.94;5074132;28;20289;-71
2021/08/11 08:24:08;;;;;;;8.50;4.00;;;;;;;27.65;42.77;96940.41;5071301;28;20182;-71
2021/08/11 08:26:34;;;;;;;4.60;4.20;;;;;;;27.93;42.39;96952.50;5055773;28;20664;-70
2021/08/11 08:29:00;;;;;;;4.67;3.53;;;;;;;27.92;42.20;96950.88;5074480;28;20174;-69
2021/08/11 08:31:25;;;;;;;6.67;4.20;;;;;;;28.14;41.87;96955.16;5074470;28;20206;-70
2021/08/11 08:33:51;;;;;;;8.70;4.10;;;;;;;28.23;41.33;96945.44;5073864;28;20186;-71
2021/08/11 08:36:16;;;;;;;9.37;4.30;;;;;;;28.44;41.62;96948.91;5074294;28;20185;-70
2021/08/11 08:38:42;;;;;;;9.13;4.13;;;;;;;28.27;41.44;96951.13;5073483;28;20588;-69
2021/08/11 08:41:12;;;;;;;5.77;3.73;;;;;;;28.61;41.43;96950.47;5071218;28;20739;-70
2021/08/11 08:43:38;;;;;;;9.80;4.30;;;;;;;28.63;41.42;96948.31;5061233;28;20191;-71
2021/08/11 08:46:05;;;;;;;4.30;3.90;;;;;;;27.65;42.97;96956.53;5069867;28;20543;-71
2021/08/11 08:48:32;;;;;;;6.97;4.03;;;;;;;28.05;42.32;96960.25;5072846;28;21111;-69
2021/08/11 08:50:58;;;;;;;7.17;3.40;;;;;;;28.36;41.62;96958.34;5073312;28;20194;-70
2021/08/11 08:53:24;;;;;;;4.37;3.80;;;;;;;28.68;41.15;96953.66;5072994;28;20567;-71
2021/08/11 08:55:51;;;;;;;8.00;4.30;;;;;;;29.08;39.61;96957.28;5073018;28;20653;-72
2021/08/11 08:58:18;;;;;;;8.80;3.77;;;;;;;29.20;39.40;96951.53;5073213;28;20424;-70
2021/08/11 09:00:43;;;;;;;4.10;3.70;;;;;;;29.07;40.44;96960.25;5070836;28;20475;-70
2021/08/11 09:03:09;;;;;;;5.33;3.63;;;;;;;29.38;39.64;96954.69;5072605;28;21154;-69
2021/08/11 09:05:35;;;;;;;3.93;3.53;;;;;;;29.30;39.47;96956.03;5072585;28;20379;-71
2021/08/11 09:08:00;;;;;;;4.60;3.60;;;;;;;29.06;40.73;96956.75;5072991;28;20213;-70
2021/08/11 09:10:26;;;;;;;4.13;3.20;;;;;;;29.34;39.95;96961.75;5072954;28;20190;-70
2021/08/11 09:13:05;;;;;;;6.93;4.07;;;;;;;29.68;39.51;96960.94;5070250;28;20202;-70
2021/08/11 09:15:43;;;;;;;5.00;4.10;;;;;;;29.42;40.34;96958.44;5057881;28;20412;-70
2021/08/11 09:18:19;;;;;;;4.73;3.37;;;;;;;30.03;38.12;96948.25;5070415;28;20915;-70
2021/08/11 09:21:09;;;;;;;4.30;3.90;;;;;;;29.86;39.17;96952.16;5066346;28;20442;-71
2021/08/11 09:23:43;;;;;;;4.67;3.67;;;;;;;30.18;37.71;96958.91;5069677;28;20461;-71
2021/08/11 09:26:13;;;;;;;3.83;3.40;;;;;;;29.91;38.18;96958.59;5072548;28;20900;-69
2021/08/11 09:28:41;;;;;;;3.63;3.10;;;;;;;30.12;38.27;96954.63;5073453;28;20887;-71
2021/08/11 09:31:25;;;;;;;6.90;3.87;;;;;;;30.04;38.46;96957.94;5064678;28;20498;-71
2021/08/11 09:33:53;;;;;;;5.43;3.20;;;;;;;30.46;37.39;96953.75;5072219;28;20435;-69
2021/08/11 09:36:18;;;;;;;6.90;3.50;;;;;;;30.60;37.28;96956.56;5072401;28;20512;-70
2021/08/11 09:39:03;;;;;;;8.00;3.10;;;;;;;30.29;37.82;96953.38;5063301;28;20952;-71
2021/08/11 09:41:29;;;;;;;5.60;3.50;;;;;;;29.65;38.50;96954.22;5072237;28;20195;-70
2021/08/11 09:44:09;;;;;;;3.63;3.33;;;;;;;29.97;37.75;96954.78;5064483;28;20412;-70
2021/08/11 09:46:38;;;;;;;8.70;4.40;;;;;;;30.38;37.52;96951.66;5063337;28;20497;-71
2021/08/11 09:49:16;;;;;;;4.13;3.43;;;;;;;30.48;37.13;96956.97;5064204;28;20416;-70
2021/08/11 09:52:01;;;;;;;6.03;4.23;;;;;;;30.88;35.85;96961.34;5072072;28;20547;-69
2021/08/11 09:54:30;;;;;;;5.13;3.47;;;;;;;30.85;36.02;96960.06;5071361;28;20424;-69
2021/08/11 09:56:57;;;;;;;5.87;3.90;;;;;;;30.86;36.71;96950.06;5062511;28;20517;-71
2021/08/11 09:59:23;;;;;;;6.83;3.77;;;;;;;31.14;36.34;96950.22;5071857;28;20436;-71
2021/08/11 10:01:49;;;;;;;8.13;3.20;;;;;;;30.65;36.58;96947.59;5072311;28;20441;-69
2021/08/11 10:04:14;;;;;;;3.47;3.17;;;;;;;31.58;35.23;96954.44;5072355;28;20191;-70
2021/08/11 10:06:42;;;;;;;3.53;3.23;;;;;;;31.73;35.55;96949.91;5065253;28;20954;-71
2021/08/11 10:09:17;;;;;;;8.07;3.97;;;;;;;31.37;34.96;96945.84;5071089;28;20190;-72
2021/08/11 10:11:47;;;;;;;5.10;3.53;;;;;;;32.43;33.72;96946.25;5065594;28;20517;-69
2021/08/11 10:14:13;;;;;;;4.00;3.20;;;;;;;32.40;33.72;96946.84;5059668;28;20551;-71
2021/08/11 10:16:40;;;;;;;5.00;3.60;;;;;;;31.98;33.93;96946.75;5071284;28;20523;-71
2021/08/11 10:19:06;;;;;;;5.47;3.40;;;;;;;31.66;34.15;96942.94;5063561;28;20430;-70
2021/08/11 10:21:34;;;;;;;9.60;3.17;;;;;;;32.02;33.22;96949.69;5072203;28;20432;-71
2021/08/11 10:24:00;;;;;;;5.93;3.40;;;;;;;32.13;33.44;96947.59;5071992;28;20451;-68
2021/08/11 10:26:29;;;;;;;5.20;3.50;;;;;;;31.68;34.44;96948.06;5071979;28;20420;-71
2021/08/11 10:28:55;;;;;;;5.47;3.37;;;;;;;31.56;35.26;96943.09;5069624;28;20428;-71
2021/08/11 10:31:22;;;;;;;10.23;3.47;;;;;;;31.46;34.15;96949.47;5070121;28;20440;-71
2021/08/11 10:33:49;;;;;;;4.90;3.27;;;;;;;30.79;35.19;96943.09;5070243;28;20210;-70
2021/08/11 10:36:15;;;;;;;12.83;4.43;;;;;;;29.94;37.32;96948.03;5071194;28;20432;-69
2021/08/11 10:38:43;;;;;;;5.60;3.53;;;;;;;29.79;34.64;96950.88;5070841;28;20444;-70
2021/08/11 10:41:08;;;;;;;4.70;4.30;;;;;;;28.83;39.52;96950.13;5071528;28;20303;-70
2021/08/11 10:43:34;;;;;;;5.93;3.80;;;;;;;29.02;39.47;96949.47;5064265;28;20508;-70
2021/08/11 10:46:04;;;;;;;3.70;3.37;;;;;;;29.00;37.65;96952.47;5070638;28;20593;-69
2021/08/11 10:48:30;;;;;;;9.47;3.80;;;;;;;29.16;36.62;96949.69;5071421;28;20450;-69
2021/08/11 10:50:57;;;;;;;5.73;4.10;;;;;;;28.58;40.04;96959.91;5069808;28;20445;-69
2021/08/11 10:53:23;;;;;;;5.10;3.83;;;;;;;28.50;40.08;96950.50;5070914;28;20217;-69
2021/08/11 10:55:50;;;;;;;4.63;3.93;;;;;;;28.44;40.64;96950.78;5070381;28;20475;-69
2021/08/11 10:58:44;;;;;;;5.00;3.33;;;;;;;28.19;41.39;96955.97;5070194;28;20282;-70
2021/08/11 11:01:29;;;;;;;4.80;4.10;;;;;;;28.19;41.89;96968.63;5069927;28;20456;-71
2021/08/11 11:03:54;;;;;;;4.33;3.93;;;;;;;28.57;41.40;96961.00;5070361;28;20478;-70
2021/08/11 11:06:20;;;;;;;4.73;3.33;;;;;;;28.40;41.65;96963.19;5069329;28;20857;-71
2021/08/11 11:08:46;;;;;;;8.20;3.80;;;;;;;28.21;41.82;96963.78;5071162;28;20174;-70
2021/08/11 11:11:45;;;;;;;4.50;4.10;;;;;;;28.56;41.56;96956.69;5069313;28;20202;-71
2021/08/11 11:14:45;;;;;;;4.40;3.57;;;;;;;28.19;41.33;96952.47;5027225;28;20433;-71
2021/08/11 11:17:11;;;;;;;6.40;3.53;;;;;;;29.25;39.27;96946.09;5048675;28;20908;-71
2021/08/11 11:20:08;;;;;;;4.13;3.40;;;;;;;29.91;37.84;96948.59;5023667;28;20421;-71
2021/08/11 11:22:41;;;;;;;6.10;3.33;;;;;;;30.82;35.77;96940.91;5047662;28;20861;-70
2021/08/11 11:25:11;;;;;;;8.17;4.37;;;;;;;30.94;35.44;96946.69;5047860;28;20945;-70
2021/08/11 11:27:42;;;;;;;3.73;3.40;;;;;;;31.52;33.56;96934.78;5023313;28;20434;-70
2021/08/11 11:30:28;;;;;;;5.83;4.00;;;;;;;31.33;33.63;96936.69;5022893;28;20877;-70
2021/08/11 11:32:54;;;;;;;4.50;3.40;;;;;;;31.22;34.06;96944.19;5033742;28;20465;-70
2021/08/11 11:35:24;;;;;;;4.97;4.47;;;;;;;31.31;33.65;96934.28;5047588;28;20433;-70
2021/08/11 11:38:09;;;;;;;4.20;3.57;;;;;;;32.34;31.87;96933.69;5041297;28;20627;-70